createdAt,value
2016-12-10T11:38:14.939Z,9.04
2016-12-10T11:39:24.541Z,9.02
2016-12-10T11:40:34.361Z,8.95
2016-12-10T11:41:43.892Z,8.9
2016-12-10T11:42:53.421Z,8.9
2016-12-10T11:44:02.892Z,8.97
2016-12-10T11:45:12.699Z,8.93
2016-12-10T11:46:22.492Z,8.9
2016-12-10T11:47:31.981Z,8.97
2016-12-10T11:48:41.782Z,8.9
2016-12-10T11:49:51.274Z,8.98
2016-12-10T11:51:01.067Z,8.92
2016-12-10T11:52:10.895Z,8.93
2016-12-10T11:53:20.699Z,8.92
2016-12-10T11:54:30.517Z,8.89
2016-12-10T11:55:40.020Z,8.9
2016-12-10T11:56:49.901Z,8.77
2016-12-10T11:57:59.676Z,8.75
2016-12-10T11:59:09.490Z,8.8
2016-12-10T12:00:18.976Z,8.9
2016-12-10T12:01:28.457Z,8.97
2016-12-10T12:02:38.262Z,8.87
2016-12-10T12:03:48.103Z,8.9
2016-12-10T12:04:57.877Z,8.97
2016-12-10T12:06:07.658Z,9
2016-12-10T12:07:17.438Z,9
2016-12-10T12:08:27.240Z,9.01
2016-12-10T12:09:37.002Z,8.97
2016-12-10T12:10:46.474Z,9.04
2016-12-10T12:11:55.645Z,8.98
2016-12-10T12:13:05.435Z,8.9
2016-12-10T12:14:15.226Z,8.87
2016-12-10T12:15:24.711Z,8.95
2016-12-10T12:16:34.222Z,8.93
2016-12-10T12:17:43.388Z,8.93
2016-12-10T12:18:53.091Z,8.93
2016-12-10T12:20:02.557Z,8.93
2016-12-10T12:21:11.740Z,8.86
2016-12-10T12:22:21.223Z,8.74
2016-12-10T12:23:30.694Z,8.77
2016-12-10T12:24:40.510Z,8.84
2016-12-10T12:25:49.660Z,8.77
2016-12-10T12:26:59.444Z,8.82
2016-12-10T12:28:08.915Z,8.64
2016-12-10T12:29:18.765Z,8.77
2016-12-10T12:30:28.560Z,8.66
2016-12-10T12:31:38.391Z,8.6
2016-12-10T12:32:48.173Z,8.63
2016-12-10T12:33:57.682Z,8.58
2016-12-10T12:35:07.213Z,8.63
2016-12-10T12:36:16.873Z,8.58
2016-12-10T12:37:26.671Z,8.61
2016-12-10T12:38:35.861Z,8.57
2016-12-10T12:39:45.329Z,8.53
2016-12-10T12:40:54.793Z,8.5
2016-12-10T12:42:04.591Z,8.46
2016-12-10T12:43:14.111Z,8.39
2016-12-10T12:44:24.022Z,8.43
2016-12-10T12:45:33.795Z,8.42
2016-12-10T12:46:43.600Z,8.32
2016-12-10T12:47:53.088Z,8.35
2016-12-10T12:49:03.041Z,8.31
2016-12-10T12:50:12.214Z,8.34
2016-12-10T12:51:21.721Z,8.34
2016-12-10T12:52:31.232Z,8.35
2016-12-10T12:53:40.813Z,8.3
2016-12-10T12:54:50.594Z,8.3
2016-12-10T12:56:00.107Z,8.31
2016-12-10T12:57:09.732Z,8.23
2016-12-10T12:58:19.540Z,8.2
2016-12-10T12:59:29.317Z,8.17
2016-12-10T13:00:39.285Z,8.21
2016-12-10T13:01:48.763Z,8.15
2016-12-10T13:02:58.248Z,8.16
2016-12-10T13:04:07.435Z,8.12
2016-12-10T13:05:16.328Z,8.02
2016-12-10T13:06:25.516Z,7.94
2016-12-10T13:07:35.391Z,8.03
2016-12-10T13:08:44.566Z,8.02
2016-12-10T13:09:54.102Z,8.06
2016-12-10T13:11:03.946Z,8.03
2016-12-10T13:12:13.450Z,8.06
2016-12-10T13:13:23.236Z,8.02
2016-12-10T13:14:32.750Z,8.07
2016-12-10T13:15:42.789Z,7.98
2016-12-10T13:16:52.279Z,7.95
2016-12-10T13:18:01.841Z,7.94
2016-12-10T13:19:10.745Z,7.94
2016-12-10T13:20:20.266Z,7.91
2016-12-10T13:21:30.088Z,7.98
2016-12-10T13:22:39.610Z,7.9
2016-12-10T13:23:49.461Z,7.9
2016-12-10T13:24:59.331Z,7.9
2016-12-10T13:26:08.535Z,7.87
2016-12-10T13:27:18.346Z,7.82
2016-12-10T13:28:27.625Z,7.8
2016-12-10T13:29:37.490Z,7.82
2016-12-10T13:30:47.284Z,7.9
2016-12-10T13:31:57.104Z,7.87
2016-12-10T13:33:05.967Z,7.84
2016-12-10T13:34:15.503Z,7.87
2016-12-10T13:35:25.345Z,7.85
2016-12-10T13:36:35.174Z,7.84
2016-12-10T13:37:44.695Z,7.87
2016-12-10T13:38:53.905Z,7.88
2016-12-10T13:40:03.128Z,7.82
2016-12-10T13:41:12.914Z,7.74
2016-12-10T13:42:22.702Z,7.9
2016-12-10T13:43:32.179Z,7.9
2016-12-10T13:44:42.107Z,7.84
2016-12-10T13:45:52.043Z,7.9
2016-12-10T13:47:01.606Z,7.82
2016-12-10T13:48:11.544Z,7.85
2016-12-10T13:49:21.059Z,7.84
2016-12-10T13:50:30.840Z,7.87
2016-12-10T13:51:40.346Z,7.85
2016-12-10T13:52:50.068Z,7.74
2016-12-10T13:53:59.600Z,7.79
2016-12-10T13:55:09.164Z,7.82
2016-12-10T13:56:18.340Z,7.91
2016-12-10T13:57:28.125Z,7.76
2016-12-10T13:58:38.089Z,7.77
2016-12-10T13:59:47.941Z,7.84
2016-12-10T14:01:29.392Z,7.88
2016-12-10T14:02:39.232Z,7.77
2016-12-10T14:03:48.884Z,7.72
2016-12-10T14:04:58.696Z,7.7
2016-12-10T14:06:08.519Z,7.76
2016-12-10T14:07:18.319Z,7.79
2016-12-10T14:08:27.847Z,7.79
2016-12-10T14:09:37.719Z,7.73
2016-12-10T14:10:47.205Z,7.8
2016-12-10T14:11:57.054Z,7.8
2016-12-10T14:13:06.854Z,7.87
2016-12-10T14:14:16.380Z,7.76
2016-12-10T14:15:26.189Z,7.77
2016-12-10T14:16:35.690Z,7.82
2016-12-10T14:17:45.493Z,7.77
2016-12-10T14:18:54.973Z,7.73
2016-12-10T14:20:04.816Z,7.74
2016-12-10T14:21:13.997Z,7.77
2016-12-10T14:22:23.493Z,7.73
2016-12-10T14:23:33.047Z,7.8
2016-12-10T14:24:42.888Z,7.73
2016-12-10T14:25:52.787Z,7.7
2016-12-10T14:27:02.310Z,7.74
2016-12-10T14:28:11.783Z,7.76
2016-12-10T14:29:21.296Z,7.66
2016-12-10T14:30:31.107Z,7.76
2016-12-10T14:31:40.915Z,7.77
2016-12-10T14:32:50.506Z,7.74
2016-12-10T14:34:00.125Z,7.72
2016-12-10T14:35:09.656Z,7.74
2016-12-10T14:36:19.446Z,7.66
2016-12-10T14:37:28.948Z,7.66
2016-12-10T14:38:38.778Z,7.72
2016-12-10T14:39:48.572Z,7.73
2016-12-10T14:40:58.366Z,7.7
2016-12-10T14:42:08.254Z,7.7
2016-12-10T14:43:17.747Z,7.66
2016-12-10T14:44:27.269Z,7.73
2016-12-10T14:45:37.059Z,7.69
2016-12-10T14:46:46.896Z,7.66
2016-12-10T14:47:56.433Z,7.66
2016-12-10T14:49:05.669Z,7.66
2016-12-10T14:50:15.212Z,7.62
2016-12-10T14:51:24.676Z,7.66
2016-12-10T14:52:34.465Z,7.69
2016-12-10T14:53:44.061Z,7.61
2016-12-10T14:54:53.250Z,7.59
2016-12-10T14:56:02.726Z,7.56
2016-12-10T14:57:12.382Z,7.58
2016-12-10T14:58:21.927Z,7.59
2016-12-10T14:59:31.462Z,7.55
2016-12-10T15:00:40.989Z,7.52
2016-12-10T15:01:49.854Z,7.59
2016-12-10T15:02:59.713Z,7.51
2016-12-10T15:04:09.342Z,7.55
2016-12-10T15:05:19.228Z,7.56
2016-12-10T15:06:29.018Z,7.56
2016-12-10T15:07:38.985Z,7.61
2016-12-10T15:08:48.537Z,7.55
2016-12-10T15:09:58.363Z,7.58
2016-12-10T15:11:08.256Z,7.58
2016-12-10T15:12:17.754Z,7.44
2016-12-10T15:13:27.561Z,7.49
2016-12-10T15:14:37.141Z,7.49
2016-12-10T15:15:46.940Z,7.52
2016-12-10T15:16:56.728Z,7.44
2016-12-10T15:18:06.226Z,7.44
2016-12-10T15:19:16.077Z,7.4
2016-12-10T15:20:25.557Z,7.4
2016-12-10T15:21:35.393Z,7.39
2016-12-10T15:22:44.899Z,7.43
2016-12-10T15:23:54.422Z,7.34
2016-12-10T15:25:03.915Z,7.43
2016-12-10T15:26:13.804Z,7.44
2016-12-10T15:27:23.385Z,7.47
2016-12-10T15:28:33.264Z,7.43
2016-12-10T15:29:43.068Z,7.48
2016-12-10T15:30:52.877Z,7.44
2016-12-10T15:32:02.387Z,7.48
2016-12-10T15:33:12.224Z,7.43
2016-12-10T15:34:22.152Z,7.43
2016-12-10T15:35:31.661Z,7.39
2016-12-10T15:36:41.451Z,7.33
2016-12-10T15:37:50.965Z,7.41
2016-12-10T15:39:00.488Z,7.36
2016-12-10T15:40:10.348Z,7.44
2016-12-10T15:41:20.194Z,7.37
2016-12-10T15:42:29.984Z,7.33
2016-12-10T15:43:39.797Z,7.31
2016-12-10T15:44:49.579Z,7.44
2016-12-10T15:45:59.375Z,7.41
2016-12-10T15:47:08.929Z,7.37
2016-12-10T15:48:18.831Z,7.37
2016-12-10T15:49:28.686Z,7.4
2016-12-10T15:50:37.567Z,7.39
2016-12-10T15:51:47.457Z,7.4
2016-12-10T15:52:57.331Z,7.4
2016-12-10T15:54:06.543Z,7.41
2016-12-10T15:55:16.376Z,7.41
2016-12-10T15:56:26.062Z,7.34
2016-12-10T15:57:35.560Z,7.33
2016-12-10T15:58:45.387Z,7.33
2016-12-10T15:59:55.245Z,7.37
2016-12-10T16:01:05.074Z,7.33
2016-12-10T16:02:14.594Z,7.34
2016-12-10T16:03:24.528Z,7.37
2016-12-10T16:04:34.334Z,7.44
2016-12-10T16:05:43.874Z,7.4
2016-12-10T16:06:53.366Z,7.4
2016-12-10T16:08:02.923Z,7.33
2016-12-10T16:09:12.466Z,7.41
2016-12-10T16:10:22.311Z,7.33
2016-12-10T16:11:32.203Z,7.4
2016-12-10T16:12:42.080Z,7.33
2016-12-10T16:13:51.571Z,7.26
2016-12-10T16:15:01.100Z,7.26
2016-12-10T16:16:10.965Z,7.29
2016-12-10T16:17:20.474Z,7.34
2016-12-10T16:18:29.968Z,7.36
2016-12-10T16:19:39.482Z,7.37
2016-12-10T16:20:49.111Z,7.39
2016-12-10T16:21:58.664Z,7.39
2016-12-10T16:23:08.486Z,7.34
2016-12-10T16:24:18.093Z,7.34
2016-12-10T16:25:27.916Z,7.33
2016-12-10T16:26:37.409Z,7.34
2016-12-10T16:27:46.585Z,7.37
2016-12-10T16:28:56.383Z,7.31
2016-12-10T16:30:05.927Z,7.33
2016-12-10T16:31:15.434Z,7.34
2016-12-10T16:32:25.064Z,7.34
2016-12-10T16:33:34.530Z,7.4
2016-12-10T16:34:44.003Z,7.26
2016-12-10T16:35:53.833Z,7.36
2016-12-10T16:37:03.324Z,7.31
2016-12-10T16:38:13.117Z,7.29
2016-12-10T16:39:22.939Z,7.29
2016-12-10T16:40:32.729Z,7.2
2016-12-10T16:41:42.242Z,7.26
2016-12-10T16:42:51.810Z,7.24
2016-12-10T16:44:01.314Z,7.22
2016-12-10T16:45:11.122Z,7.33
2016-12-10T16:46:20.915Z,7.37
2016-12-10T16:47:30.717Z,7.29
2016-12-10T16:48:40.307Z,7.31
2016-12-10T16:49:49.653Z,7.33
2016-12-10T16:50:59.481Z,7.36
2016-12-10T16:52:09.379Z,7.31
2016-12-10T16:53:18.576Z,7.34
2016-12-10T16:54:28.400Z,7.34
2016-12-10T16:55:37.589Z,7.26
2016-12-10T16:56:47.426Z,7.39
2016-12-10T16:57:57.298Z,7.31
2016-12-10T16:59:07.140Z,7.31
2016-12-10T17:00:16.976Z,7.29
2016-12-10T17:01:26.264Z,7.28
2016-12-10T17:02:36.098Z,7.33
2016-12-10T17:03:45.712Z,7.34
2016-12-10T17:04:55.187Z,7.26
2016-12-10T17:06:05.111Z,7.29
2016-12-10T17:07:14.951Z,7.29
2016-12-10T17:08:24.464Z,7.34
2016-12-10T17:09:34.262Z,7.26
2016-12-10T17:10:44.143Z,7.31
2016-12-10T17:11:53.613Z,7.29
2016-12-10T17:13:03.221Z,7.39
2016-12-10T17:14:12.712Z,7.26
2016-12-10T17:15:22.202Z,7.39
2016-12-10T17:16:32.036Z,7.37
2016-12-10T17:17:41.970Z,7.34
2016-12-10T17:18:51.771Z,7.41
2016-12-10T17:20:01.281Z,7.37
2016-12-10T17:21:10.820Z,7.33
2016-12-10T17:22:20.628Z,7.36
2016-12-10T17:23:30.163Z,7.37
2016-12-10T17:24:39.718Z,7.37
2016-12-10T17:25:49.559Z,7.37
2016-12-10T17:26:59.059Z,7.36
2016-12-10T17:28:08.747Z,7.39
2016-12-10T17:29:18.267Z,7.37
2016-12-10T17:30:28.103Z,7.36
2016-12-10T17:31:37.902Z,7.37
2016-12-10T17:32:47.169Z,7.37
2016-12-10T17:33:56.977Z,7.4
2016-12-10T17:35:06.833Z,7.41
2016-12-10T17:36:16.057Z,7.39
2016-12-10T17:37:25.869Z,7.44
2016-12-10T17:38:35.661Z,7.43
2016-12-10T17:39:44.549Z,7.33
2016-12-10T17:40:54.353Z,7.41
2016-12-10T17:42:04.155Z,7.36
2016-12-10T17:43:13.981Z,7.43
2016-12-10T17:44:23.224Z,7.39
2016-12-10T17:45:33.253Z,7.4
2016-12-10T17:46:42.861Z,7.4
2016-12-10T17:47:52.087Z,7.43
2016-12-10T17:49:02.996Z,7.43
2016-12-10T17:50:12.846Z,7.4
2016-12-10T17:51:22.662Z,7.39
2016-12-10T17:52:32.216Z,7.41
2016-12-10T17:53:41.834Z,7.4
2016-12-10T17:54:51.653Z,7.36
2016-12-10T17:56:01.182Z,7.43
2016-12-10T17:57:11.011Z,7.48
2016-12-10T17:58:20.602Z,7.54
2016-12-10T17:59:30.410Z,7.44
2016-12-10T18:00:40.239Z,7.52
2016-12-10T18:01:50.313Z,7.44
2016-12-10T18:03:00.118Z,7.43
2016-12-10T18:04:09.943Z,7.43
2016-12-10T18:05:19.789Z,7.43
2016-12-10T18:06:29.632Z,7.49
2016-12-10T18:07:39.534Z,7.48
2016-12-10T18:08:48.531Z,7.48
2016-12-10T18:09:58.392Z,7.47
2016-12-10T18:11:07.994Z,7.47
2016-12-10T18:12:17.779Z,7.52
2016-12-10T18:13:27.310Z,7.52
2016-12-10T18:14:36.474Z,7.54
2016-12-10T18:15:46.279Z,7.54
2016-12-10T18:16:56.131Z,7.56
2016-12-10T18:18:06.037Z,7.54
2016-12-10T18:19:15.872Z,7.54
2016-12-10T18:20:25.740Z,7.54
2016-12-10T18:21:35.239Z,7.58
2016-12-10T18:22:45.214Z,7.56
2016-12-10T18:23:55.031Z,7.52
2016-12-10T18:25:04.867Z,7.56
2016-12-10T18:26:14.695Z,7.56
2016-12-10T18:27:24.178Z,7.58
2016-12-10T18:28:34.056Z,7.52
2016-12-10T18:29:43.540Z,7.59
2016-12-10T18:30:53.083Z,7.55
2016-12-10T18:32:02.973Z,7.61
2016-12-10T18:33:12.158Z,7.56
2016-12-10T18:34:22.047Z,7.55
2016-12-10T18:35:31.546Z,7.66
2016-12-10T18:36:40.779Z,7.56
2016-12-10T18:37:50.642Z,7.64
2016-12-10T18:39:00.176Z,7.62
2016-12-10T18:40:10.130Z,7.56
2016-12-10T18:41:19.726Z,7.58
2016-12-10T18:42:29.517Z,7.51
2016-12-10T18:43:39.041Z,7.54
2016-12-10T18:44:48.601Z,7.43
2016-12-10T18:45:58.493Z,7.48
2016-12-10T18:47:08.372Z,7.55
2016-12-10T18:48:17.876Z,7.49
2016-12-10T18:49:27.415Z,7.52
2016-12-10T18:50:36.892Z,7.54
2016-12-10T18:51:46.255Z,7.58
2016-12-10T18:52:55.441Z,7.56
2016-12-10T18:54:04.624Z,7.64
2016-12-10T18:55:14.437Z,7.66
2016-12-10T18:56:23.967Z,7.62
2016-12-10T18:57:33.511Z,7.59
2016-12-10T18:58:42.688Z,7.56
2016-12-10T18:59:52.534Z,7.56
2016-12-10T19:01:02.372Z,7.55
2016-12-10T19:02:12.372Z,7.56
2016-12-10T19:03:21.911Z,7.54
2016-12-10T19:04:32.062Z,7.54
2016-12-10T19:05:41.573Z,7.59
2016-12-10T19:06:51.088Z,7.55
2016-12-10T19:08:00.586Z,7.59
2016-12-10T19:09:10.167Z,7.54
2016-12-10T19:10:19.699Z,7.54
2016-12-10T19:11:29.541Z,7.54
2016-12-10T19:12:39.123Z,7.56
2016-12-10T19:13:49.052Z,7.58
2016-12-10T19:14:58.921Z,7.51
2016-12-10T19:16:08.465Z,7.47
2016-12-10T19:17:18.272Z,7.44
2016-12-10T19:18:27.815Z,7.48
2016-12-10T19:19:37.394Z,7.47
2016-12-10T19:20:47.454Z,7.43
2016-12-10T19:21:56.694Z,7.44
2016-12-10T19:23:06.471Z,7.44
2016-12-10T19:24:16.379Z,7.49
2016-12-10T19:25:26.445Z,7.48
2016-12-10T19:26:36.327Z,7.48
2016-12-10T19:27:46.061Z,7.48
2016-12-10T19:28:55.770Z,7.54
2016-12-10T19:30:05.391Z,7.49
2016-12-10T19:31:14.953Z,7.47
2016-12-10T19:32:24.836Z,7.48
2016-12-10T19:33:34.794Z,7.48
2016-12-10T19:34:44.393Z,7.44
2016-12-10T19:35:54.338Z,7.48
2016-12-10T19:37:03.914Z,7.4
2016-12-10T19:38:13.723Z,7.49
2016-12-10T19:39:23.635Z,7.51
2016-12-10T19:40:33.190Z,7.33
2016-12-10T19:41:42.504Z,7.48
2016-12-10T19:42:52.188Z,7.39
2016-12-10T19:44:02.279Z,7.43
2016-12-10T19:45:12.227Z,7.37
2016-12-10T19:46:21.527Z,7.37
2016-12-10T19:47:31.153Z,7.4
2016-12-10T19:48:41.246Z,7.47
2016-12-10T19:49:51.464Z,7.39
2016-12-10T19:51:01.037Z,7.39
2016-12-10T19:52:10.643Z,7.41
2016-12-10T19:53:20.740Z,7.43
2016-12-10T19:54:30.865Z,7.4
2016-12-10T19:55:40.258Z,7.34
2016-12-10T19:56:50.205Z,7.37
2016-12-10T19:57:59.874Z,7.39
2016-12-10T19:59:09.543Z,7.4
2016-12-10T20:00:19.192Z,7.34
2016-12-10T20:01:28.508Z,7.34
2016-12-10T20:02:38.512Z,7.34
2016-12-10T20:03:48.465Z,7.29
2016-12-10T20:04:58.154Z,7.26
2016-12-10T20:06:07.798Z,7.28
2016-12-10T20:07:17.487Z,7.41
2016-12-10T20:08:27.179Z,7.31
2016-12-10T20:09:37.121Z,7.36
2016-12-10T20:10:47.097Z,7.31
2016-12-10T20:11:56.780Z,7.34
2016-12-10T20:13:06.862Z,7.34
2016-12-10T20:14:16.921Z,7.41
2016-12-10T20:15:26.984Z,7.33
2016-12-10T20:16:37.039Z,7.47
2016-12-10T20:17:46.859Z,7.43
2016-12-10T20:18:56.999Z,7.39
2016-12-10T20:20:06.692Z,7.39
2016-12-10T20:21:16.356Z,7.29
2016-12-10T20:22:26.385Z,7.37
2016-12-10T20:23:36.075Z,7.4
2016-12-10T20:24:46.096Z,7.43
2016-12-10T20:25:56.067Z,7.34
2016-12-10T20:27:06.143Z,7.31
2016-12-10T20:28:16.241Z,7.33
2016-12-10T20:29:26.203Z,7.31
2016-12-10T20:30:35.572Z,7.33
2016-12-10T20:31:45.518Z,7.34
2016-12-10T20:32:54.819Z,7.29
2016-12-10T20:34:04.521Z,7.29
2016-12-10T20:35:14.573Z,7.29
2016-12-10T20:36:24.544Z,7.26
2016-12-10T20:37:34.808Z,7.29
2016-12-10T20:38:44.543Z,7.33
2016-12-10T20:39:54.320Z,7.36
2016-12-10T20:41:04.312Z,7.26
2016-12-10T20:42:14.486Z,7.33
2016-12-10T20:43:24.642Z,7.29
2016-12-10T20:44:34.332Z,7.22
2016-12-10T20:45:43.981Z,7.29
2016-12-10T20:46:53.616Z,7.28
2016-12-10T20:48:03.595Z,7.24
2016-12-10T20:49:13.525Z,7.29
2016-12-10T20:50:23.475Z,7.29
2016-12-10T20:51:33.072Z,7.26
2016-12-10T20:52:42.656Z,7.24
2016-12-10T20:53:52.286Z,7.22
2016-12-10T20:55:01.942Z,7.22
2016-12-10T20:56:11.612Z,7.29
2016-12-10T20:57:21.551Z,7.24
2016-12-10T20:58:31.580Z,7.24
2016-12-10T20:59:41.595Z,7.24
2016-12-10T21:00:51.226Z,7.22
2016-12-10T21:02:00.894Z,7.22
2016-12-10T21:03:10.520Z,7.21
2016-12-10T21:04:20.253Z,7.29
2016-12-10T21:05:30.312Z,7.22
2016-12-10T21:06:40.248Z,7.26
2016-12-10T21:07:49.856Z,7.29
2016-12-10T21:08:59.937Z,7.24
2016-12-10T21:10:09.980Z,7.24
2016-12-10T21:11:19.914Z,7.29
2016-12-10T21:12:29.966Z,7.29
2016-12-10T21:13:39.855Z,7.31
2016-12-10T21:14:49.839Z,7.34
2016-12-10T21:15:59.913Z,7.26
2016-12-10T21:17:09.220Z,7.26
2016-12-10T21:18:19.277Z,7.29
2016-12-10T21:19:29.004Z,7.29
2016-12-10T21:20:39.060Z,7.33
2016-12-10T21:21:48.724Z,7.31
2016-12-10T21:22:58.371Z,7.34
2016-12-10T21:24:08.338Z,7.34
2016-12-10T21:25:17.910Z,7.31
2016-12-10T21:26:27.826Z,7.28
2016-12-10T21:27:37.714Z,7.29
2016-12-10T21:28:47.627Z,7.33
2016-12-10T21:29:56.918Z,7.33
2016-12-10T21:31:06.631Z,7.31
2016-12-10T21:32:16.514Z,7.28
2016-12-10T21:33:26.191Z,7.34
2016-12-10T21:34:35.843Z,7.21
2016-12-10T21:35:45.725Z,7.24
2016-12-10T21:36:55.258Z,7.24
2016-12-10T21:38:05.214Z,7.26
2016-12-10T21:39:15.053Z,7.31
2016-12-10T21:40:24.898Z,7.22
2016-12-10T21:41:34.778Z,7.24
2016-12-10T21:42:44.358Z,7.31
2016-12-10T21:43:54.209Z,7.28
2016-12-10T21:45:03.763Z,7.28
2016-12-10T21:46:13.669Z,7.22
2016-12-10T21:47:23.231Z,7.33
2016-12-10T21:48:33.222Z,7.28
2016-12-10T21:49:42.725Z,7.31
2016-12-10T21:50:52.546Z,7.34
2016-12-10T21:52:02.342Z,7.26
2016-12-10T21:53:11.546Z,7.28
2016-12-10T21:54:21.051Z,7.22
2016-12-10T21:55:30.552Z,7.26
2016-12-10T21:56:40.037Z,7.26
2016-12-10T21:57:49.581Z,7.33
2016-12-10T21:58:59.392Z,7.26
2016-12-10T22:00:08.887Z,7.29
2016-12-10T22:01:18.385Z,7.36
2016-12-10T22:02:28.260Z,7.34
2016-12-10T22:03:37.784Z,7.33
2016-12-10T22:04:47.656Z,7.28
2016-12-10T22:05:57.517Z,7.4
2016-12-10T22:07:07.007Z,7.36
2016-12-10T22:08:16.318Z,7.37
2016-12-10T22:09:26.157Z,7.4
2016-12-10T22:10:36.116Z,7.4
2016-12-10T22:11:45.937Z,7.33
2016-12-10T22:12:55.741Z,7.29
2016-12-10T22:14:05.286Z,7.41
2016-12-10T22:15:14.915Z,7.39
2016-12-10T22:16:24.414Z,7.37
2016-12-10T22:17:33.942Z,7.44
2016-12-10T22:18:43.780Z,7.36
2016-12-10T22:19:53.312Z,7.41
2016-12-10T22:21:02.823Z,7.34
2016-12-10T22:22:12.346Z,7.39
2016-12-10T22:23:22.315Z,7.33
2016-12-10T22:24:32.124Z,7.29
2016-12-10T22:25:41.335Z,7.36
2016-12-10T22:26:51.130Z,7.37
2016-12-10T22:28:01.002Z,7.36
2016-12-10T22:29:10.488Z,7.34
2016-12-10T22:30:20.315Z,7.29
2016-12-10T22:31:30.167Z,7.31
2016-12-10T22:32:40.048Z,7.29
2016-12-10T22:33:49.589Z,7.31
2016-12-10T22:34:59.485Z,7.44
2016-12-10T22:36:09.273Z,7.41
2016-12-10T22:37:18.760Z,7.43
2016-12-10T22:38:28.543Z,7.36
2016-12-10T22:39:38.335Z,7.36
2016-12-10T22:40:48.154Z,7.36
2016-12-10T22:41:57.653Z,7.26
2016-12-10T22:43:07.601Z,7.33
2016-12-10T22:44:17.111Z,7.31
2016-12-10T22:45:26.970Z,7.26
2016-12-10T22:46:36.773Z,7.31
2016-12-10T22:47:46.589Z,7.28
2016-12-10T22:48:55.764Z,7.21
2016-12-10T22:50:05.740Z,7.26
2016-12-10T22:51:14.923Z,7.36
2016-12-10T22:52:24.481Z,7.36
2016-12-10T22:53:34.279Z,7.33
2016-12-10T22:54:43.748Z,7.29
2016-12-10T22:55:53.329Z,7.24
2016-12-10T22:57:02.798Z,7.24
2016-12-10T22:58:12.443Z,7.24
2016-12-10T22:59:22.254Z,7.13
2016-12-10T23:00:31.799Z,7.21
2016-12-10T23:01:41.284Z,7.21
2016-12-10T23:02:51.106Z,7.2
2016-12-10T23:04:00.940Z,7.13
2016-12-10T23:05:10.759Z,7.17
2016-12-10T23:06:20.253Z,7.18
2016-12-10T23:07:29.750Z,7.21
2016-12-10T23:08:39.275Z,7.18
2016-12-10T23:09:49.086Z,7.17
2016-12-10T23:10:58.561Z,7.26
2016-12-10T23:12:08.536Z,7.28
2016-12-10T23:13:18.336Z,7.18
2016-12-10T23:14:27.950Z,7.21
2016-12-10T23:15:37.776Z,7.22
2016-12-10T23:16:47.325Z,7.22
2016-12-10T23:17:57.129Z,7.2
2016-12-10T23:19:06.469Z,7.2
2016-12-10T23:20:16.283Z,7.17
2016-12-10T23:21:26.120Z,7.06
2016-12-10T23:22:35.939Z,7.13
2016-12-10T23:23:45.927Z,7.1
2016-12-10T23:24:55.716Z,7.1
2016-12-10T23:26:05.247Z,6.97
2016-12-10T23:27:15.065Z,7.06
2016-12-10T23:28:24.589Z,6.9
2016-12-10T23:29:34.103Z,6.93
2016-12-10T23:30:43.901Z,6.95
2016-12-10T23:31:53.693Z,6.9
2016-12-10T23:33:03.528Z,6.96
2016-12-10T23:34:13.017Z,6.97
2016-12-10T23:35:22.260Z,6.9
2016-12-10T23:36:32.082Z,6.92
2016-12-10T23:37:41.914Z,6.96
2016-12-10T23:38:51.773Z,6.9
2016-12-10T23:40:01.563Z,6.93
2016-12-10T23:41:11.096Z,6.9
2016-12-10T23:42:20.890Z,6.85
2016-12-10T23:43:30.391Z,6.79
2016-12-10T23:45:11.772Z,6.77
2016-12-10T23:46:21.573Z,6.81
2016-12-10T23:47:30.746Z,6.84
2016-12-10T23:48:40.555Z,6.77
2016-12-10T23:49:50.359Z,6.82
2016-12-10T23:51:00.167Z,6.79
2016-12-10T23:52:10.043Z,6.82
2016-12-10T23:53:19.866Z,6.74
2016-12-10T23:54:29.679Z,6.78
2016-12-10T23:55:39.481Z,6.71
2016-12-10T23:56:49.021Z,6.67
2016-12-10T23:57:58.496Z,6.59
2016-12-10T23:59:08.398Z,6.63
